createdAt,value
2024-04-06T00:03:50.466Z,14.80
2024-04-06T00:19:07.950Z,14.87
2024-04-06T00:34:11.173Z,14.73
2024-04-06T00:49:22.196Z,14.72
2024-04-06T01:04:25.978Z,14.78
2024-04-06T01:19:32.248Z,14.93
2024-04-06T01:34:37.674Z,15.07
2024-04-06T01:49:45.559Z,15.00
2024-04-06T02:04:48.419Z,14.86
2024-04-06T02:19:51.398Z,14.59
2024-04-06T02:34:54.544Z,14.36
2024-04-06T02:50:00.520Z,14.23
2024-04-06T03:05:04.502Z,14.08
2024-04-06T03:20:09.698Z,13.99
2024-04-06T03:35:17.672Z,13.78
2024-04-06T03:50:24.175Z,13.69
2024-04-06T04:05:30.429Z,13.57
2024-04-06T04:20:34.665Z,13.45
2024-04-06T04:36:01.738Z,13.27
2024-04-06T04:51:04.961Z,13.14
2024-04-06T05:06:30.482Z,13.19
2024-04-06T05:21:33.730Z,13.38
2024-04-06T05:36:37.086Z,13.71
2024-04-06T05:51:40.164Z,14.23
2024-04-06T06:07:06.137Z,17.81
2024-04-06T06:22:10.939Z,20.10
2024-04-06T06:52:38.297Z,21.50
2024-04-06T07:07:44.121Z,22.43
2024-04-06T07:22:48.313Z,21.12
2024-04-06T07:37:54.548Z,22.47
2024-04-06T07:53:00.603Z,21.59
2024-04-06T08:08:04.785Z,22.58
2024-04-06T08:23:09.271Z,22.98
2024-04-06T08:38:13.857Z,23.25
2024-04-06T08:53:17.257Z,22.61
2024-04-06T09:08:22.317Z,22.98
2024-04-06T09:23:27.071Z,23.01
2024-04-06T09:38:30.202Z,23.97
2024-04-06T09:53:35.221Z,24.18
2024-04-06T10:08:52.763Z,24.16
2024-04-06T10:23:56.295Z,24.14
2024-04-06T10:39:05.937Z,23.93
2024-04-06T10:54:09.331Z,23.77
2024-04-06T11:09:13.521Z,23.73
2024-04-06T11:24:16.831Z,23.38
2024-04-06T11:39:20.163Z,23.05
2024-04-06T11:54:24.258Z,23.42
2024-04-06T12:09:32.170Z,22.79
2024-04-06T12:24:55.110Z,23.16
2024-04-06T12:39:58.535Z,23.35
2024-04-06T12:55:01.864Z,22.64
2024-04-06T13:10:08.306Z,22.86
2024-04-06T13:25:20.353Z,22.42
2024-04-06T13:40:23.953Z,22.14
2024-04-06T13:55:27.045Z,22.04
2024-04-06T14:10:31.248Z,21.78
2024-04-06T14:25:37.434Z,21.36
2024-04-06T14:40:44.242Z,21.12
2024-04-06T14:56:11.372Z,21.37
2024-04-06T15:11:15.002Z,22.64
2024-04-06T15:26:18.620Z,22.88
2024-04-06T15:41:21.860Z,23.14
2024-04-06T15:56:24.837Z,22.69
2024-04-06T16:11:28.432Z,22.01
2024-04-06T16:26:32.737Z,21.10
2024-04-06T16:41:37.102Z,20.65
2024-04-06T16:56:40.218Z,20.23
2024-04-06T17:11:43.537Z,19.68
2024-04-06T17:26:46.685Z,19.33
2024-04-06T17:41:50.784Z,18.95
2024-04-06T17:56:54.541Z,18.15
2024-04-06T18:11:57.932Z,17.64
2024-04-06T18:27:01.313Z,17.14
2024-04-06T18:42:04.400Z,16.55
2024-04-06T18:57:07.877Z,15.90
2024-04-06T19:12:11.190Z,15.58
2024-04-06T19:27:14.665Z,15.38
2024-04-06T19:42:19.728Z,14.91
2024-04-06T19:57:23.394Z,14.72
2024-04-06T20:12:27.629Z,14.48
2024-04-06T20:27:30.757Z,14.22
2024-04-06T20:42:35.650Z,14.01
2024-04-06T20:57:38.864Z,13.88
2024-04-06T21:12:45.637Z,13.74
2024-04-06T21:27:48.854Z,13.60
2024-04-06T21:42:52.411Z,13.39
2024-04-06T21:57:55.778Z,13.14
2024-04-06T22:12:58.669Z,13.02
2024-04-06T22:28:01.818Z,13.05
2024-04-06T22:43:04.966Z,12.93
2024-04-06T22:58:08.440Z,12.73
2024-04-06T23:13:11.357Z,12.63
2024-04-06T23:28:17.923Z,12.44
2024-04-06T23:43:21.018Z,12.31
2024-04-06T23:58:23.926Z,12.23
